createdAt,value
2017-09-29T00:02:07.692Z,57.97
2017-09-29T00:04:36.774Z,60.23
2017-09-29T00:07:05.850Z,57.67
2017-09-29T00:09:34.186Z,59.93
2017-09-29T00:12:05.263Z,61.87
2017-09-29T00:14:33.599Z,58.57
2017-09-29T00:17:01.901Z,61.63
2017-09-29T00:19:30.227Z,62.23
2017-09-29T00:21:59.295Z,59.77
2017-09-29T00:24:27.809Z,60.07
2017-09-29T00:26:56.903Z,57.70
2017-09-29T00:29:25.995Z,60.70
2017-09-29T00:31:55.090Z,61.83
2017-09-29T00:34:23.416Z,58.50
2017-09-29T00:36:51.753Z,58.00
2017-09-29T00:39:20.823Z,61.00
2017-09-29T00:41:49.331Z,59.17
2017-09-29T00:44:17.851Z,59.57
2017-09-29T00:46:46.144Z,59.23
2017-09-29T00:49:14.472Z,57.57
2017-09-29T00:51:42.781Z,58.90
2017-09-29T00:54:11.123Z,58.10
2017-09-29T00:56:39.429Z,58.03
2017-09-29T00:59:07.778Z,54.57
2017-09-29T01:01:36.096Z,58.50
2017-09-29T01:04:04.615Z,58.83
2017-09-29T01:06:32.929Z,59.20
2017-09-29T01:09:01.267Z,57.30
2017-09-29T01:11:29.630Z,60.90
2017-09-29T01:13:58.735Z,55.67
2017-09-29T01:16:28.035Z,57.80
2017-09-29T01:18:57.113Z,61.47
2017-09-29T01:21:25.415Z,58.00
2017-09-29T01:23:54.520Z,59.80
2017-09-29T01:26:22.842Z,58.90
2017-09-29T01:28:51.186Z,57.63
2017-09-29T01:31:19.538Z,57.67
2017-09-29T01:33:48.638Z,57.77
2017-09-29T01:36:17.718Z,60.70
2017-09-29T01:38:46.208Z,59.57
2017-09-29T01:41:15.288Z,61.67
2017-09-29T01:43:43.603Z,61.17
2017-09-29T01:46:11.943Z,60.17
2017-09-29T01:48:41.093Z,64.00
2017-09-29T01:51:09.438Z,59.40
2017-09-29T01:53:38.506Z,56.63
2017-09-29T01:56:07.614Z,59.97
2017-09-29T01:58:35.951Z,55.70
2017-09-29T02:01:04.320Z,60.30
2017-09-29T02:03:32.646Z,58.10
2017-09-29T02:06:01.956Z,56.80
2017-09-29T02:08:31.054Z,54.70
2017-09-29T02:10:59.374Z,57.20
2017-09-29T02:13:27.692Z,63.00
2017-09-29T02:15:56.775Z,58.23
2017-09-29T02:18:25.095Z,57.30
2017-09-29T02:20:53.394Z,58.43
2017-09-29T02:23:21.726Z,59.80
2017-09-29T02:25:50.813Z,61.53
2017-09-29T02:28:19.904Z,59.47
2017-09-29T02:30:48.208Z,56.47
2017-09-29T02:33:17.080Z,61.00
2017-09-29T02:35:45.406Z,59.93
2017-09-29T02:38:13.724Z,57.33
2017-09-29T02:40:42.083Z,58.80
2017-09-29T02:43:10.398Z,55.47
2017-09-29T02:45:38.727Z,57.30
2017-09-29T02:48:07.039Z,63.07
2017-09-29T02:50:36.296Z,57.37
2017-09-29T02:53:04.598Z,57.87
2017-09-29T02:55:32.914Z,56.77
2017-09-29T02:58:02.466Z,57.97
2017-09-29T03:00:31.767Z,58.90
2017-09-29T03:03:01.728Z,59.13
2017-09-29T03:05:31.558Z,53.23
2017-09-29T03:07:59.935Z,58.83
2017-09-29T03:10:28.240Z,57.60
2017-09-29T03:12:57.380Z,55.20
2017-09-29T03:15:26.452Z,56.73
2017-09-29T03:17:54.951Z,53.00
2017-09-29T03:20:24.030Z,57.43
2017-09-29T03:22:52.334Z,61.23
2017-09-29T03:25:21.460Z,56.30
2017-09-29T03:27:49.764Z,57.00
2017-09-29T03:30:18.075Z,60.60
2017-09-29T03:32:47.138Z,59.37
2017-09-29T03:35:15.463Z,64.47
2017-09-29T03:37:43.766Z,57.60
2017-09-29T03:40:12.103Z,58.20
2017-09-29T03:42:40.447Z,59.83
2017-09-29T03:45:09.117Z,59.90
2017-09-29T03:47:37.411Z,59.97
2017-09-29T03:50:05.974Z,60.70
2017-09-29T03:52:37.396Z,58.07
2017-09-29T03:55:06.109Z,59.90
2017-09-29T03:57:39.514Z,59.80
2017-09-29T04:00:08.823Z,57.63
2017-09-29T04:02:37.179Z,56.20
2017-09-29T04:05:05.484Z,60.47
2017-09-29T04:07:33.822Z,61.37
2017-09-29T04:10:02.124Z,57.77
2017-09-29T04:12:31.601Z,59.50
2017-09-29T04:14:59.907Z,59.27
2017-09-29T04:17:28.220Z,62.43
2017-09-29T04:19:57.309Z,60.37
2017-09-29T04:22:25.634Z,59.97
2017-09-29T04:24:53.978Z,60.10
2017-09-29T04:27:22.290Z,61.03
2017-09-29T04:29:50.627Z,60.57
2017-09-29T04:32:18.943Z,58.00
2017-09-29T04:34:47.287Z,60.40
2017-09-29T04:37:15.590Z,62.23
2017-09-29T04:39:43.926Z,57.90
2017-09-29T04:42:12.236Z,57.27
2017-09-29T04:44:40.571Z,60.47
2017-09-29T04:47:09.675Z,62.27
2017-09-29T04:49:38.734Z,59.60
2017-09-29T04:52:07.075Z,60.40
2017-09-29T04:54:35.379Z,63.33
2017-09-29T04:57:03.883Z,60.67
2017-09-29T04:59:32.183Z,63.63
2017-09-29T05:02:01.247Z,61.20
2017-09-29T05:04:29.580Z,61.20
2017-09-29T05:06:57.887Z,63.10
2017-09-29T05:09:26.217Z,62.20
2017-09-29T05:11:54.580Z,62.67
2017-09-29T05:14:23.663Z,66.80
2017-09-29T05:16:52.730Z,64.87
2017-09-29T05:19:21.267Z,64.97
2017-09-29T05:21:50.357Z,63.77
2017-09-29T05:24:19.130Z,62.30
2017-09-29T05:26:47.487Z,64.10
2017-09-29T05:29:15.794Z,69.00
2017-09-29T05:31:44.127Z,67.80
2017-09-29T05:34:12.439Z,63.57
2017-09-29T05:36:41.568Z,67.43
2017-09-29T05:39:09.871Z,65.90
2017-09-29T05:41:39.030Z,66.90
2017-09-29T05:44:07.342Z,65.97
2017-09-29T05:46:36.058Z,66.07
2017-09-29T05:49:05.135Z,66.00
2017-09-29T05:51:33.446Z,63.53
2017-09-29T05:54:01.799Z,63.87
2017-09-29T05:56:30.135Z,63.43
2017-09-29T05:58:58.580Z,66.00
2017-09-29T06:01:27.634Z,63.50
2017-09-29T06:03:55.981Z,60.33
2017-09-29T06:06:24.296Z,61.93
2017-09-29T06:08:52.810Z,62.23
2017-09-29T06:11:21.119Z,64.60
2017-09-29T06:13:49.885Z,61.47
2017-09-29T06:16:18.592Z,64.27
2017-09-29T06:18:46.946Z,66.13
2017-09-29T06:21:15.303Z,61.50
2017-09-29T06:23:44.371Z,58.70
2017-09-29T06:26:13.479Z,62.30
2017-09-29T06:28:41.817Z,60.40
2017-09-29T06:31:10.455Z,64.47
2017-09-29T06:33:39.518Z,59.50
2017-09-29T06:36:07.831Z,62.90
2017-09-29T06:38:36.927Z,57.27
2017-09-29T06:41:05.256Z,59.93
2017-09-29T06:43:33.570Z,57.20
2017-09-29T06:46:02.651Z,57.07
2017-09-29T06:48:31.748Z,56.50
2017-09-29T06:51:00.148Z,56.77
2017-09-29T06:53:29.259Z,58.30
2017-09-29T06:55:58.313Z,54.13
2017-09-29T06:58:27.814Z,53.70
2017-09-29T07:00:56.176Z,53.93
2017-09-29T07:03:25.283Z,56.93
2017-09-29T07:05:53.614Z,59.60
2017-09-29T07:08:21.915Z,57.03
2017-09-29T07:10:50.347Z,52.50
2017-09-29T07:13:18.659Z,54.00
2017-09-29T07:15:47.203Z,57.57
2017-09-29T07:18:16.318Z,57.37
2017-09-29T07:20:44.751Z,58.33
2017-09-29T07:23:13.052Z,56.47
2017-09-29T07:25:44.081Z,55.23
2017-09-29T07:28:13.814Z,54.87
2017-09-29T07:30:44.735Z,56.17
2017-09-29T07:33:13.931Z,53.83
2017-09-29T07:35:43.002Z,53.33
2017-09-29T07:38:11.342Z,53.23
2017-09-29T07:40:39.659Z,52.23
2017-09-29T07:43:07.992Z,50.27
2017-09-29T07:45:36.288Z,52.60
2017-09-29T07:48:04.631Z,51.77
2017-09-29T07:50:32.945Z,51.40
2017-09-29T07:53:01.468Z,50.90
2017-09-29T07:55:29.799Z,50.20
2017-09-29T07:57:58.107Z,47.83
2017-09-29T08:00:27.215Z,51.10
2017-09-29T08:02:55.520Z,50.70
2017-09-29T08:05:23.872Z,48.97
2017-09-29T08:07:52.929Z,50.07
2017-09-29T08:10:21.238Z,48.53
2017-09-29T08:12:50.323Z,47.57
2017-09-29T08:15:19.640Z,49.50
2017-09-29T08:17:48.020Z,46.30
2017-09-29T08:20:16.338Z,48.57
2017-09-29T08:22:44.776Z,46.67
2017-09-29T08:25:13.837Z,45.53
2017-09-29T08:27:42.169Z,46.60
2017-09-29T08:30:10.488Z,48.77
2017-09-29T08:32:38.902Z,47.57
2017-09-29T08:35:07.223Z,46.00
2017-09-29T08:37:35.531Z,46.30
2017-09-29T08:40:03.839Z,44.67
2017-09-29T08:42:32.169Z,44.60
2017-09-29T08:45:01.251Z,45.17
2017-09-29T08:47:29.570Z,45.67
2017-09-29T08:49:58.688Z,43.80
2017-09-29T08:52:26.992Z,46.00
2017-09-29T08:54:55.318Z,44.13
2017-09-29T08:57:24.397Z,43.20
2017-09-29T08:59:52.854Z,43.57
2017-09-29T09:02:21.168Z,45.70
2017-09-29T09:04:50.233Z,42.87
2017-09-29T09:07:18.585Z,43.40
2017-09-29T09:09:46.891Z,42.43
2017-09-29T09:12:15.214Z,44.10
2017-09-29T09:14:44.276Z,43.33
2017-09-29T09:17:13.384Z,43.40
2017-09-29T09:19:41.704Z,40.17
2017-09-29T09:22:10.032Z,40.73
2017-09-29T09:24:39.111Z,40.30
2017-09-29T09:27:07.464Z,40.73
2017-09-29T09:29:35.765Z,38.70
2017-09-29T09:32:04.126Z,40.60
2017-09-29T09:34:32.450Z,39.60
2017-09-29T09:37:01.745Z,38.93
2017-09-29T09:39:30.072Z,39.50
2017-09-29T09:41:58.407Z,38.60
2017-09-29T09:44:26.770Z,41.77
2017-09-29T09:46:55.846Z,40.30
2017-09-29T09:49:24.158Z,41.40
2017-09-29T09:51:53.216Z,39.17
2017-09-29T09:54:22.455Z,40.50
2017-09-29T09:56:50.743Z,40.00
2017-09-29T09:59:19.310Z,39.17
2017-09-29T10:01:47.635Z,38.83
2017-09-29T10:04:15.929Z,37.07
2017-09-29T10:06:44.263Z,42.47
2017-09-29T10:09:12.594Z,40.70
2017-09-29T10:11:41.706Z,39.57
2017-09-29T10:14:10.025Z,38.97
2017-09-29T10:16:38.373Z,35.97
2017-09-29T10:19:06.682Z,39.17
2017-09-29T10:21:35.015Z,40.70
2017-09-29T10:24:03.362Z,41.30
2017-09-29T10:26:31.657Z,40.77
2017-09-29T10:29:00.745Z,40.27
2017-09-29T10:31:29.829Z,37.40
2017-09-29T10:33:58.155Z,38.77
2017-09-29T10:36:26.467Z,39.17
2017-09-29T10:38:54.806Z,37.43
2017-09-29T10:41:23.122Z,39.40
2017-09-29T10:43:51.456Z,39.57
2017-09-29T10:46:19.774Z,39.10
2017-09-29T10:48:48.506Z,38.70
2017-09-29T10:51:17.576Z,41.53
2017-09-29T10:53:45.879Z,35.40
2017-09-29T10:56:14.213Z,42.00
2017-09-29T10:58:43.302Z,43.83
2017-09-29T11:01:12.431Z,42.20
2017-09-29T11:03:41.499Z,42.97
2017-09-29T11:06:09.831Z,40.83
2017-09-29T11:08:38.140Z,37.17
2017-09-29T11:11:06.523Z,38.17
2017-09-29T11:13:34.831Z,36.93
2017-09-29T11:16:03.177Z,41.03
2017-09-29T11:18:31.490Z,39.20
2017-09-29T11:21:00.015Z,38.90
2017-09-29T11:23:28.316Z,39.50
2017-09-29T11:25:56.636Z,41.13
2017-09-29T11:28:24.987Z,40.00
2017-09-29T11:30:53.331Z,37.10
2017-09-29T11:33:21.667Z,36.60
2017-09-29T11:35:49.991Z,35.97
2017-09-29T11:38:18.355Z,35.77
2017-09-29T11:40:46.658Z,39.47
2017-09-29T11:43:15.783Z,34.00
2017-09-29T11:45:44.119Z,40.07
2017-09-29T11:48:12.493Z,34.07
2017-09-29T11:50:40.806Z,30.47
2017-09-29T11:53:09.095Z,32.03
2017-09-29T11:55:37.439Z,40.50
2017-09-29T11:58:05.753Z,34.13
2017-09-29T12:00:34.086Z,30.53
2017-09-29T12:03:03.183Z,27.27
2017-09-29T12:05:31.495Z,30.43
2017-09-29T12:07:59.783Z,28.53
2017-09-29T12:10:28.230Z,31.63
2017-09-29T12:12:57.302Z,30.70
2017-09-29T12:15:25.599Z,29.10
2017-09-29T12:17:53.903Z,27.57
2017-09-29T12:20:22.223Z,25.57
2017-09-29T12:22:50.538Z,25.20
2017-09-29T12:25:18.871Z,23.83
2017-09-29T12:27:47.202Z,22.93
2017-09-29T12:30:16.259Z,25.27
2017-09-29T12:32:44.579Z,27.03
2017-09-29T12:35:13.651Z,25.20
2017-09-29T12:37:42.751Z,26.40
2017-09-29T12:40:11.082Z,28.90
2017-09-29T12:42:39.617Z,28.97
2017-09-29T12:45:07.929Z,26.67
2017-09-29T12:47:36.244Z,28.10
2017-09-29T12:50:04.575Z,28.70
2017-09-29T12:52:32.918Z,27.53
2017-09-29T12:55:01.273Z,26.40
2017-09-29T12:57:29.631Z,25.70
2017-09-29T12:59:58.022Z,27.43
2017-09-29T13:02:26.412Z,27.30
2017-09-29T13:04:55.851Z,26.93
2017-09-29T13:07:24.202Z,26.97
2017-09-29T13:09:52.511Z,26.90
2017-09-29T13:12:20.838Z,26.53
2017-09-29T13:14:49.127Z,28.77
2017-09-29T13:17:18.265Z,28.23
2017-09-29T13:19:47.319Z,27.20
2017-09-29T13:22:15.641Z,26.67
2017-09-29T13:24:43.951Z,25.17
2017-09-29T13:27:12.269Z,27.50
2017-09-29T13:29:41.438Z,24.77
2017-09-29T13:32:09.877Z,26.20
2017-09-29T13:34:38.192Z,25.13
2017-09-29T13:37:06.469Z,26.70
2017-09-29T13:39:35.568Z,29.50
2017-09-29T13:42:03.867Z,26.63
2017-09-29T13:44:32.233Z,24.20
2017-09-29T13:47:01.339Z,25.63
2017-09-29T13:49:29.680Z,23.17
2017-09-29T13:51:58.733Z,24.40
2017-09-29T13:54:27.071Z,24.53
2017-09-29T13:56:55.363Z,23.93
2017-09-29T13:59:24.654Z,22.00
2017-09-29T14:01:53.730Z,23.53
2017-09-29T14:04:22.054Z,20.50
2017-09-29T14:06:50.363Z,26.70
2017-09-29T14:09:18.671Z,23.67
2017-09-29T14:11:47.776Z,23.80
2017-09-29T14:14:16.845Z,28.93
2017-09-29T14:16:45.972Z,21.97
2017-09-29T14:19:14.306Z,22.03
2017-09-29T14:21:42.750Z,24.53
2017-09-29T14:24:11.041Z,23.20
2017-09-29T14:26:39.374Z,24.27
2017-09-29T14:29:07.764Z,22.60
2017-09-29T14:31:36.102Z,21.47
2017-09-29T14:34:05.235Z,23.50
2017-09-29T14:36:33.539Z,23.13
2017-09-29T14:39:01.888Z,22.00
2017-09-29T14:41:30.215Z,21.53
2017-09-29T14:43:58.588Z,21.17
2017-09-29T14:46:26.898Z,25.57
2017-09-29T14:48:56.107Z,20.10
2017-09-29T14:51:25.187Z,14.43
2017-09-29T14:53:53.491Z,15.37
2017-09-29T14:56:21.814Z,13.63
2017-09-29T14:58:50.127Z,19.03
2017-09-29T15:01:19.110Z,15.00
2017-09-29T15:03:48.347Z,15.93
2017-09-29T15:06:16.959Z,15.53
2017-09-29T15:08:45.278Z,16.03
2017-09-29T15:11:13.590Z,15.17
2017-09-29T15:13:41.919Z,14.90
2017-09-29T15:16:10.238Z,14.27
2017-09-29T15:18:38.574Z,14.60
2017-09-29T15:21:06.915Z,12.13
2017-09-29T15:23:35.243Z,13.23
2017-09-29T15:26:03.582Z,13.33
2017-09-29T15:28:32.750Z,12.73
2017-09-29T15:31:01.163Z,14.77
2017-09-29T15:33:29.495Z,13.13
2017-09-29T15:35:57.809Z,12.13
2017-09-29T15:38:26.288Z,13.40
2017-09-29T15:40:54.643Z,11.23
2017-09-29T15:43:22.988Z,11.90
2017-09-29T15:45:51.337Z,11.70
2017-09-29T15:48:20.454Z,13.20
2017-09-29T15:50:48.812Z,11.70
2017-09-29T15:53:17.119Z,13.57
2017-09-29T15:55:45.457Z,13.20
2017-09-29T15:58:13.765Z,11.73
2017-09-29T16:00:42.867Z,13.40
2017-09-29T16:03:11.190Z,12.93
2017-09-29T16:05:39.521Z,12.47
2017-09-29T16:08:08.580Z,13.53
2017-09-29T16:10:37.048Z,16.17
2017-09-29T16:13:05.361Z,13.07
2017-09-29T16:15:33.688Z,14.30
2017-09-29T16:18:02.063Z,12.97
2017-09-29T16:20:30.369Z,12.97
2017-09-29T16:22:58.691Z,12.30
2017-09-29T16:25:27.018Z,12.07
2017-09-29T16:27:55.330Z,12.33
2017-09-29T16:30:24.430Z,13.73
2017-09-29T16:32:52.736Z,13.80
2017-09-29T16:35:21.050Z,13.30
2017-09-29T16:37:49.362Z,14.07
2017-09-29T16:40:17.711Z,15.00
2017-09-29T16:42:46.802Z,13.17
2017-09-29T16:45:15.513Z,13.47
2017-09-29T16:47:44.591Z,13.10
2017-09-29T16:50:12.887Z,13.47
2017-09-29T16:52:41.983Z,13.70
2017-09-29T16:55:10.314Z,13.57
2017-09-29T16:57:39.394Z,12.97
2017-09-29T17:00:07.738Z,13.10
2017-09-29T17:02:36.322Z,15.17
2017-09-29T17:05:04.646Z,15.20
2017-09-29T17:07:33.010Z,16.43
2017-09-29T17:10:01.319Z,18.97
2017-09-29T17:12:29.750Z,17.70
2017-09-29T17:14:58.061Z,19.10
2017-09-29T17:17:27.170Z,17.73
2017-09-29T17:19:56.285Z,18.30
2017-09-29T17:22:25.366Z,17.60
2017-09-29T17:24:54.458Z,16.77
2017-09-29T17:27:22.745Z,18.07
2017-09-29T17:29:51.852Z,18.10
2017-09-29T17:32:20.439Z,16.70
2017-09-29T17:34:48.760Z,18.33
2017-09-29T17:37:17.068Z,18.43
2017-09-29T17:39:46.372Z,19.03
2017-09-29T17:42:14.690Z,18.17
2017-09-29T17:44:42.987Z,18.30
2017-09-29T17:47:11.334Z,17.33
2017-09-29T17:49:39.651Z,18.67
2017-09-29T17:52:07.985Z,17.60
2017-09-29T17:54:36.318Z,17.73
2017-09-29T17:57:04.671Z,16.43
2017-09-29T17:59:33.011Z,20.50
2017-09-29T18:02:02.083Z,18.30
2017-09-29T18:04:31.154Z,16.87
2017-09-29T18:06:59.507Z,17.40
2017-09-29T18:09:27.863Z,18.67
2017-09-29T18:11:56.193Z,18.97
2017-09-29T18:14:24.552Z,18.27
2017-09-29T18:16:52.851Z,18.23
2017-09-29T18:19:21.464Z,19.00
2017-09-29T18:21:50.557Z,19.67
2017-09-29T18:24:19.454Z,17.53
2017-09-29T18:26:47.804Z,18.80
2017-09-29T18:29:16.884Z,20.60
2017-09-29T18:31:45.228Z,19.77
2017-09-29T18:34:14.395Z,18.53
2017-09-29T18:36:42.763Z,17.20
2017-09-29T18:39:12.630Z,19.43
2017-09-29T18:41:42.568Z,20.97
2017-09-29T18:44:15.583Z,20.90
2017-09-29T19:00:04.251Z,20.67
2017-09-29T19:02:32.557Z,22.67
2017-09-29T19:05:00.911Z,24.03
2017-09-29T19:07:29.252Z,28.07
2017-09-29T19:09:57.614Z,27.17
2017-09-29T19:12:25.916Z,26.97
2017-09-29T19:14:54.268Z,28.80
2017-09-29T19:17:22.612Z,29.07
2017-09-29T19:19:51.075Z,29.90
2017-09-29T19:22:19.398Z,32.30
2017-09-29T19:24:47.802Z,33.57
2017-09-29T19:27:17.123Z,30.97
2017-09-29T19:29:45.454Z,32.13
2017-09-29T19:32:13.842Z,33.50
2017-09-29T19:34:42.181Z,36.33
2017-09-29T19:37:10.516Z,37.00
2017-09-29T19:39:38.830Z,35.63
2017-09-29T19:42:07.282Z,35.07
2017-09-29T19:44:35.611Z,38.00
2017-09-29T19:47:04.719Z,37.67
2017-09-29T19:49:33.811Z,37.87
2017-09-29T19:52:02.116Z,38.60
2017-09-29T19:54:30.525Z,40.23
2017-09-29T19:56:58.880Z,38.87
2017-09-29T19:59:27.206Z,39.10
2017-09-29T20:01:55.505Z,36.93
2017-09-29T20:04:23.828Z,39.77
2017-09-29T20:06:52.171Z,39.17
2017-09-29T20:09:21.372Z,35.97
2017-09-29T20:11:50.432Z,38.10
2017-09-29T20:14:19.525Z,38.07
2017-09-29T20:16:47.868Z,38.37
2017-09-29T20:19:16.187Z,39.40
2017-09-29T20:21:44.599Z,40.80
2017-09-29T20:24:12.892Z,40.70
2017-09-29T20:26:41.226Z,38.70
2017-09-29T20:29:10.310Z,41.93
2017-09-29T20:31:38.635Z,42.27
2017-09-29T20:34:06.941Z,42.07
2017-09-29T20:36:35.242Z,42.97
2017-09-29T20:39:03.594Z,40.67
2017-09-29T20:41:31.939Z,41.70
2017-09-29T20:44:00.272Z,43.43
2017-09-29T20:46:29.712Z,44.20
2017-09-29T20:48:58.138Z,43.60
2017-09-29T20:51:26.458Z,46.57
2017-09-29T20:53:55.526Z,47.93
2017-09-29T20:56:23.861Z,43.40
2017-09-29T20:58:52.180Z,42.10
2017-09-29T21:01:20.511Z,43.77
2017-09-29T21:03:48.855Z,43.13
2017-09-29T21:06:17.194Z,42.03
2017-09-29T21:08:45.500Z,40.77
2017-09-29T21:11:13.992Z,41.90
2017-09-29T21:13:42.307Z,42.97
2017-09-29T21:16:10.659Z,40.70
2017-09-29T21:18:39.738Z,42.13
2017-09-29T21:21:08.061Z,38.90
2017-09-29T21:23:36.494Z,42.50
2017-09-29T21:26:04.806Z,44.10
2017-09-29T21:28:33.251Z,40.87
2017-09-29T21:31:01.579Z,43.87
2017-09-29T21:33:29.875Z,40.80
2017-09-29T21:35:59.694Z,40.47
2017-09-29T21:38:27.999Z,42.30
2017-09-29T21:40:57.096Z,39.77
2017-09-29T21:43:25.399Z,40.60
2017-09-29T21:45:53.757Z,36.03
2017-09-29T21:48:22.095Z,39.50
2017-09-29T21:50:50.638Z,36.90
2017-09-29T21:53:19.733Z,39.90
2017-09-29T21:55:48.110Z,41.63
2017-09-29T21:58:17.222Z,41.30
2017-09-29T22:00:45.528Z,42.73
2017-09-29T22:03:14.630Z,45.53
2017-09-29T22:05:42.996Z,42.77
2017-09-29T22:08:12.231Z,45.00
2017-09-29T22:10:40.526Z,43.60
2017-09-29T22:13:08.814Z,47.27
2017-09-29T22:15:37.138Z,44.40
2017-09-29T22:18:05.456Z,45.73
2017-09-29T22:20:34.599Z,46.90
2017-09-29T22:23:03.674Z,47.30
2017-09-29T22:25:32.795Z,44.87
2017-09-29T22:28:01.902Z,43.20
2017-09-29T22:30:30.490Z,44.47
2017-09-29T22:32:59.558Z,41.97
2017-09-29T22:35:28.642Z,46.93
2017-09-29T22:37:56.958Z,42.70
2017-09-29T22:40:25.331Z,44.80
2017-09-29T22:42:53.690Z,43.23
2017-09-29T22:45:22.764Z,43.03
2017-09-29T22:47:51.082Z,44.27
2017-09-29T22:50:19.384Z,45.40
2017-09-29T22:52:47.717Z,43.10
2017-09-29T22:55:16.800Z,44.80
2017-09-29T22:57:45.897Z,42.07
2017-09-29T23:00:15.019Z,45.23
2017-09-29T23:02:43.343Z,47.10
2017-09-29T23:05:11.674Z,45.97
2017-09-29T23:07:39.987Z,46.23
2017-09-29T23:10:08.335Z,46.43
2017-09-29T23:12:36.674Z,46.93
2017-09-29T23:15:05.187Z,46.87
2017-09-29T23:17:33.523Z,43.93
2017-09-29T23:20:01.816Z,42.60
2017-09-29T23:22:30.910Z,42.90
2017-09-29T23:24:59.988Z,44.57
2017-09-29T23:27:28.298Z,43.10
2017-09-29T23:29:57.364Z,42.90
2017-09-29T23:32:26.470Z,42.43
2017-09-29T23:34:55.546Z,40.60
2017-09-29T23:37:23.870Z,42.67
2017-09-29T23:39:52.177Z,41.83
2017-09-29T23:42:20.599Z,42.20
2017-09-29T23:44:49.700Z,38.53
2017-09-29T23:47:18.783Z,43.27
2017-09-29T23:49:47.111Z,41.20
2017-09-29T23:52:15.423Z,40.37
2017-09-29T23:54:44.880Z,41.57
2017-09-29T23:57:13.193Z,41.23
2017-09-29T23:59:42.294Z,41.27
